Time;durP1;ratioP1;P1;durP2;ratioP2;P2;SDS_P1;SDS_P2;PMS_P1;PMS_P2;Temp;Humidity;BMP_temperature;BMP_pressure;BME280_temperature;BME280_humidity;BME280_pressure;Samples;Min_cycle;Max_cycle;Signal;HPM_P1;HPM_P2
2021/09/30 00:00:47;;;;;;;7.03;2.60;;;6.80;93.70;;;;;;5048361;28;20045;-64
2021/09/30 00:03:15;;;;;;;7.17;3.20;;;6.80;93.50;;;;;;5050363;28;20102;-64
2021/09/30 00:05:43;;;;;;;5.25;2.45;;;6.70;93.60;;;;;;5080268;28;20052;-64
2021/09/30 00:08:11;;;;;;;11.82;3.00;;;6.70;93.80;;;;;;5057701;28;20091;-64
2021/09/30 00:10:45;;;;;;;8.05;2.72;;;6.70;94.00;;;;;;5065658;28;20041;-64
2021/09/30 00:14:04;;;;;;;8.63;2.58;;;6.70;93.70;;;;;;5055300;28;20419;-64
2021/09/30 00:32:37;;;;;;;7.20;2.50;;;6.60;93.90;;;;;;5084990;28;20452;-64
2021/09/30 00:40:29;;;;;;;8.50;2.83;;;6.50;93.80;;;;;;5060090;28;20095;-64
2021/09/30 00:48:38;;;;;;;10.02;2.45;;;6.40;94.10;;;;;;5069380;28;20075;-64
2021/09/30 01:18:03;;;;;;;3.78;2.17;;;6.30;94.40;;;;;;5063650;28;20058;-63
2021/09/30 01:46:22;;;;;;;6.35;2.42;;;6.10;95.20;;;;;;5053684;28;20058;-63
2021/09/30 02:59:28;;;;;;;7.85;2.00;;;6.40;95.30;;;;;;5070696;28;20045;-63
2021/09/30 03:01:56;;;;;;;8.57;2.40;;;6.50;95.50;;;;;;5051565;28;20039;-64
2021/09/30 03:04:24;;;;;;;5.93;1.53;;;6.50;95.90;;;;;;5065389;28;20456;-64
2021/09/30 03:06:50;;;;;;;7.10;2.35;;;6.60;95.70;;;;;;5059510;28;20286;-64
2021/09/30 03:09:20;;;;;;;11.75;3.67;;;6.60;95.60;;;;;;5059681;28;20048;-63
2021/09/30 03:11:51;;;;;;;6.85;1.85;;;6.70;95.70;;;;;;5068705;28;20171;-63
2021/09/30 03:14:21;;;;;;;6.00;1.92;;;6.80;95.60;;;;;;5038988;28;20044;-63
2021/09/30 03:16:52;;;;;;;8.00;2.08;;;6.80;95.40;;;;;;5044321;28;20045;-63
2021/09/30 03:19:49;;;;;;;5.10;2.13;;;6.90;95.20;;;;;;5038335;28;20127;-64
2021/09/30 03:22:17;;;;;;;8.88;1.70;;;7.00;95.10;;;;;;5058103;28;20408;-63
2021/09/30 03:24:49;;;;;;;10.20;1.90;;;7.00;94.80;;;;;;5074164;28;20048;-63
2021/09/30 03:27:16;;;;;;;5.43;2.00;;;7.10;94.70;;;;;;5032863;28;20059;-63
2021/09/30 03:29:43;;;;;;;4.68;1.80;;;7.10;94.40;;;;;;5051575;28;20419;-64
2021/09/30 03:32:10;;;;;;;10.70;2.65;;;7.10;94.70;;;;;;5083063;28;20052;-64
2021/09/30 03:34:37;;;;;;;7.45;1.77;;;7.10;94.40;;;;;;5068551;28;20036;-64
2021/09/30 03:37:04;;;;;;;4.70;1.70;;;7.10;94.10;;;;;;5077778;28;20103;-64
2021/09/30 03:39:33;;;;;;;10.38;3.25;;;7.10;94.30;;;;;;5065688;28;20558;-63
2021/09/30 03:41:59;;;;;;;11.50;1.90;;;7.10;94.50;;;;;;5066588;28;20055;-64
2021/09/30 03:44:27;;;;;;;5.93;1.95;;;7.10;94.60;;;;;;5055094;28;20067;-63
2021/09/30 03:46:53;;;;;;;5.18;1.50;;;7.20;94.40;;;;;;5060196;28;20048;-64
2021/09/30 03:49:27;;;;;;;4.53;2.20;;;7.20;94.50;;;;;;5044666;28;20044;-63
2021/09/30 03:52:00;;;;;;;7.85;2.05;;;7.20;94.80;;;;;;5065480;28;20044;-64
2021/09/30 03:57:04;;;;;;;4.82;1.85;;;7.30;94.90;;;;;;5065818;28;20412;-63
2021/09/30 03:59:31;;;;;;;7.97;1.80;;;7.30;94.50;;;;;;5093195;28;20349;-63
2021/09/30 04:02:00;;;;;;;5.97;2.72;;;7.40;94.70;;;;;;5092199;28;20055;-64
2021/09/30 04:04:32;;;;;;;10.25;1.95;;;7.40;94.60;;;;;;5083749;28;20052;-64
2021/09/30 04:07:02;;;;;;;6.38;2.05;;;7.50;94.70;;;;;;5090285;28;21668;-64
2021/09/30 04:09:29;;;;;;;7.45;1.80;;;7.50;94.20;;;;;;5061936;28;20078;-64
2021/09/30 04:12:00;;;;;;;6.22;1.58;;;7.60;94.30;;;;;;5053654;28;20131;-64
2021/09/30 04:14:28;;;;;;;9.02;2.40;;;7.70;94.30;;;;;;5046016;28;20491;-63
2021/09/30 04:16:55;;;;;;;7.07;1.75;;;7.70;94.40;;;;;;5069726;28;20054;-65
2021/09/30 04:19:22;;;;;;;4.07;1.48;;;7.80;93.90;;;;;;5067645;28;20048;-64
2021/09/30 04:21:50;;;;;;;6.68;1.77;;;7.80;94.40;;;;;;5088184;28;20135;-63
2021/09/30 04:24:17;;;;;;;8.85;2.58;;;7.80;93.90;;;;;;5068406;28;20044;-64
2021/09/30 04:26:44;;;;;;;7.28;1.90;;;7.80;94.00;;;;;;5041030;28;20060;-64
2021/09/30 04:29:12;;;;;;;3.85;1.83;;;7.90;93.80;;;;;;5066163;28;20048;-63
2021/09/30 04:31:39;;;;;;;5.88;1.40;;;7.90;94.00;;;;;;5064244;28;20055;-63
2021/09/30 04:34:06;;;;;;;5.82;2.33;;;7.90;94.00;;;;;;5045716;28;20136;-63
2021/09/30 04:36:33;;;;;;;4.85;1.67;;;7.90;93.70;;;;;;5070175;28;20059;-63
2021/09/30 04:39:00;;;;;;;5.45;1.70;;;8.00;94.10;;;;;;5048852;28;20478;-63
2021/09/30 04:41:27;;;;;;;8.30;2.35;;;8.00;94.10;;;;;;5060863;28;20131;-64
2021/09/30 04:43:53;;;;;;;7.93;2.20;;;8.00;94.10;;;;;;5062375;28;20052;-64
2021/09/30 04:46:20;;;;;;;7.70;2.00;;;8.00;93.90;;;;;;5054022;28;20126;-64
2021/09/30 04:48:48;;;;;;;8.95;1.92;;;8.00;93.80;;;;;;5086712;28;20513;-64
2021/09/30 04:51:15;;;;;;;6.10;1.65;;;8.10;93.90;;;;;;5069920;28;20198;-64
2021/09/30 04:53:44;;;;;;;7.32;1.70;;;8.10;93.80;;;;;;5065115;28;20094;-63
2021/09/30 04:56:12;;;;;;;4.22;1.45;;;8.20;94.30;;;;;;5070490;28;20100;-64
2021/09/30 04:58:39;;;;;;;6.00;1.50;;;8.20;93.90;;;;;;5047485;28;20167;-63
2021/09/30 05:01:06;;;;;;;10.43;2.85;;;8.30;93.90;;;;;;5067410;28;20488;-63
2021/09/30 05:03:33;;;;;;;4.90;1.85;;;8.30;93.70;;;;;;5062572;28;20407;-63
2021/09/30 05:06:01;;;;;;;6.55;2.05;;;8.30;93.80;;;;;;5045982;28;20062;-64
2021/09/30 05:08:32;;;;;;;8.40;2.08;;;8.30;93.70;;;;;;5047555;28;20528;-63
2021/09/30 05:11:04;;;;;;;4.95;1.70;;;8.40;93.80;;;;;;5067804;28;20055;-64
2021/09/30 05:13:39;;;;;;;8.02;1.70;;;8.40;93.90;;;;;;5059672;28;21605;-63
2021/09/30 05:16:07;;;;;;;5.25;2.00;;;8.50;93.70;;;;;;5091072;28;20131;-63
2021/09/30 05:18:36;;;;;;;7.72;1.48;;;8.60;93.80;;;;;;5064613;28;20457;-63
2021/09/30 05:21:04;;;;;;;8.40;1.77;;;8.70;93.40;;;;;;5064095;28;20059;-63
2021/09/30 05:23:31;;;;;;;7.18;2.10;;;8.80;93.50;;;;;;5054607;28;20443;-64
2021/09/30 05:25:58;;;;;;;4.57;1.50;;;8.80;93.20;;;;;;5043574;28;20055;-64
2021/09/30 05:28:25;;;;;;;8.13;1.90;;;8.90;93.10;;;;;;5090361;28;20112;-63
2021/09/30 05:30:52;;;;;;;3.38;1.58;;;8.90;93.00;;;;;;5091393;28;20381;-64
2021/09/30 05:33:20;;;;;;;9.13;2.40;;;9.00;92.40;;;;;;5072128;28;20054;-64
2021/09/30 05:35:48;;;;;;;5.57;1.88;;;9.00;92.20;;;;;;5090950;28;20150;-64
2021/09/30 05:38:14;;;;;;;9.25;2.17;;;9.10;92.70;;;;;;5038555;28;20046;-64
2021/09/30 05:40:42;;;;;;;14.10;3.55;;;9.10;92.20;;;;;;5056118;28;20218;-64
2021/09/30 05:43:15;;;;;;;5.53;1.70;;;9.20;91.80;;;;;;5064106;28;20127;-64
2021/09/30 05:45:43;;;;;;;5.93;1.90;;;9.30;92.10;;;;;;5090891;28;20089;-63
2021/09/30 05:48:10;;;;;;;9.45;2.38;;;9.30;91.70;;;;;;5066600;28;20043;-63
2021/09/30 05:50:37;;;;;;;9.68;2.00;;;9.40;91.90;;;;;;5088370;28;20540;-64
2021/09/30 05:53:04;;;;;;;13.85;2.65;;;9.40;91.70;;;;;;5078907;28;20048;-64
2021/09/30 05:55:31;;;;;;;6.07;2.17;;;9.50;91.30;;;;;;5085329;28;20044;-64
2021/09/30 05:57:58;;;;;;;6.57;2.08;;;9.60;91.40;;;;;;5072077;28;20511;-64
2021/09/30 06:12:22;;;;;;;13.00;2.23;;;9.80;91.30;;;;;;4980127;28;20448;-63
2021/09/30 06:14:30;;;;;;;5.32;1.80;;;9.90;90.80;;;;;;5050430;28;20035;-64
2021/09/30 06:16:57;;;;;;;8.70;1.60;;;9.90;91.10;;;;;;5087502;28;20134;-64
2021/09/30 06:19:30;;;;;;;42.20;25.30;;;9.90;91.40;;;;;;5066037;28;20040;-63
2021/09/30 06:21:58;;;;;;;12.30;4.95;;;9.90;91.40;;;;;;5065136;28;20052;-65
2021/09/30 06:24:25;;;;;;;6.50;1.98;;;10.00;91.40;;;;;;5085509;28;20102;-70
2021/09/30 06:26:52;;;;;;;7.63;2.13;;;10.00;91.30;;;;;;5090233;28;20068;-70
2021/09/30 06:29:19;;;;;;;13.63;2.90;;;10.10;91.60;;;;;;5089769;28;20146;-68
2021/09/30 06:31:46;;;;;;;9.85;2.03;;;10.10;91.40;;;;;;5088001;28;20054;-68
2021/09/30 06:34:13;;;;;;;5.55;2.03;;;10.20;91.60;;;;;;5048695;28;20048;-70
2021/09/30 06:36:40;;;;;;;7.18;2.25;;;10.20;91.20;;;;;;5090849;28;20048;-67
2021/09/30 06:39:07;;;;;;;6.97;2.85;;;10.30;91.50;;;;;;5083226;28;20456;-68
2021/09/30 06:41:34;;;;;;;7.78;1.98;;;10.40;91.30;;;;;;5056196;28;20468;-69
2021/09/30 06:44:16;;;;;;;8.77;2.08;;;10.40;91.20;;;;;;5075594;28;20054;-67
2021/09/30 06:46:43;;;;;;;14.18;8.73;;;10.40;91.10;;;;;;5062341;28;20086;-69
2021/09/30 06:49:10;;;;;;;29.48;17.20;;;10.60;91.20;;;;;;5041892;28;20091;-66
2021/09/30 06:51:37;;;;;;;7.85;4.72;;;10.70;91.30;;;;;;5040373;28;20048;-62
2021/09/30 06:54:06;;;;;;;13.90;5.47;;;10.70;91.20;;;;;;5054094;28;20499;-63
2021/09/30 06:56:33;;;;;;;6.82;2.80;;;10.80;90.80;;;;;;5056843;28;20088;-64
2021/09/30 06:59:06;;;;;;;5.47;1.65;;;10.80;90.80;;;;;;5051247;28;20056;-64
2021/09/30 07:01:35;;;;;;;18.10;11.88;;;10.80;90.80;;;;;;5059788;28;20048;-63
2021/09/30 07:04:06;;;;;;;8.18;3.10;;;10.90;91.20;;;;;;5057496;28;20448;-62
2021/09/30 07:06:33;;;;;;;13.98;4.15;;;10.90;90.60;;;;;;5020236;28;20053;-62
2021/09/30 07:09:00;;;;;;;8.20;1.80;;;11.00;90.80;;;;;;5062704;28;20041;-62
2021/09/30 07:11:27;;;;;;;8.68;2.00;;;11.00;91.00;;;;;;5057267;28;20099;-62
2021/09/30 07:13:54;;;;;;;4.15;1.65;;;11.00;90.80;;;;;;5058307;28;20040;-63
2021/09/30 07:16:21;;;;;;;5.07;1.73;;;11.10;90.70;;;;;;5061106;28;20123;-59
2021/09/30 07:18:48;;;;;;;5.13;1.40;;;11.10;90.80;;;;;;5055872;28;20118;-63
2021/09/30 07:21:15;;;;;;;5.68;1.80;;;11.20;90.80;;;;;;5052171;28;20080;-63
2021/09/30 07:23:42;;;;;;;10.50;2.03;;;11.20;90.20;;;;;;5050195;28;20071;-63
2021/09/30 07:26:09;;;;;;;6.22;1.95;;;11.30;90.20;;;;;;5048911;28;20053;-63
2021/09/30 07:28:37;;;;;;;7.55;1.65;;;11.30;90.40;;;;;;5050231;28;20095;-63
2021/09/30 07:31:05;;;;;;;5.10;1.85;;;11.40;90.30;;;;;;5052481;28;20055;-63
2021/09/30 07:33:33;;;;;;;7.22;1.67;;;11.40;90.00;;;;;;5052825;28;20538;-63
2021/09/30 07:36:00;;;;;;;11.23;1.90;;;11.50;89.20;;;;;;5052342;28;20052;-64
2021/09/30 07:38:28;;;;;;;10.02;2.00;;;11.50;90.00;;;;;;5052876;28;20041;-64
2021/09/30 07:40:55;;;;;;;9.18;2.10;;;11.60;89.50;;;;;;5052904;28;20055;-64
2021/09/30 07:43:22;;;;;;;12.20;2.40;;;11.60;89.20;;;;;;5053455;28;20045;-67
2021/09/30 07:45:49;;;;;;;7.53;2.00;;;11.70;89.40;;;;;;5042640;28;20052;-65
2021/09/30 07:48:16;;;;;;;7.63;1.70;;;11.70;90.20;;;;;;5059544;28;20057;-65
2021/09/30 07:50:43;;;;;;;8.68;3.10;;;11.80;90.60;;;;;;5056816;28;20041;-62
2021/09/30 07:53:10;;;;;;;8.75;4.40;;;11.80;90.60;;;;;;5057455;28;20092;-64
2021/09/30 07:55:37;;;;;;;23.13;11.85;;;11.90;90.60;;;;;;5065959;28;20184;-64
2021/09/30 07:58:09;;;;;;;6.63;2.92;;;11.90;90.70;;;;;;5065907;28;20162;-63
2021/09/30 08:00:39;;;;;;;6.97;2.75;;;11.90;90.80;;;;;;5094175;28;20052;-64
2021/09/30 08:03:07;;;;;;;24.02;13.55;;;11.90;91.20;;;;;;5075922;28;20087;-64
2021/09/30 08:05:37;;;;;;;9.85;2.80;;;11.90;91.60;;;;;;5067337;28;20199;-64
2021/09/30 08:08:05;;;;;;;6.03;2.00;;;11.90;91.70;;;;;;5070066;28;20076;-63
2021/09/30 08:10:32;;;;;;;10.27;2.25;;;11.80;92.00;;;;;;5088171;28;20048;-64
2021/09/30 08:12:59;;;;;;;6.13;2.05;;;11.80;92.00;;;;;;5093224;28;20044;-64
2021/09/30 08:15:26;;;;;;;9.60;2.65;;;11.80;92.10;;;;;;5093678;28;20044;-63
2021/09/30 08:17:53;;;;;;;3.72;1.52;;;11.80;92.20;;;;;;5093860;28;20044;-64
2021/09/30 08:20:20;;;;;;;6.55;1.75;;;11.80;92.20;;;;;;5072892;28;20072;-64
2021/09/30 08:22:48;;;;;;;8.10;2.35;;;11.90;92.30;;;;;;5072775;28;20048;-64
2021/09/30 08:25:14;;;;;;;6.78;1.70;;;11.90;91.40;;;;;;5061843;28;20056;-63
2021/09/30 08:27:41;;;;;;;10.25;2.30;;;12.00;92.20;;;;;;5091948;28;20044;-64
2021/09/30 08:30:09;;;;;;;52.53;33.05;;;12.00;91.30;;;;;;5058710;28;20134;-63
2021/09/30 08:32:36;;;;;;;8.82;3.25;;;12.10;91.20;;;;;;5079915;28;20051;-67
2021/09/30 08:35:04;;;;;;;9.18;2.58;;;12.10;91.80;;;;;;5056380;28;20076;-64
2021/09/30 08:37:32;;;;;;;7.45;2.58;;;12.10;91.30;;;;;;5054914;28;20048;-64
2021/09/30 08:39:59;;;;;;;10.73;2.47;;;12.20;91.20;;;;;;5054993;28;20048;-65
2021/09/30 08:42:26;;;;;;;8.35;2.22;;;12.30;91.40;;;;;;5071948;28;20044;-64
2021/09/30 08:44:54;;;;;;;10.63;2.00;;;12.30;92.00;;;;;;5055383;28;20147;-64
2021/09/30 08:47:21;;;;;;;11.45;2.42;;;12.40;91.20;;;;;;5055302;28;20136;-64
2021/09/30 08:49:48;;;;;;;11.15;2.58;;;12.50;90.30;;;;;;5055000;28;20052;-65
2021/09/30 08:52:16;;;;;;;8.07;2.08;;;12.50;90.60;;;;;;5054127;28;20048;-65
2021/09/30 08:54:46;;;;;;;7.32;1.92;;;12.60;90.60;;;;;;5073671;28;20128;-64
2021/09/30 08:57:13;;;;;;;7.43;1.67;;;12.70;90.10;;;;;;5069015;28;20131;-64
2021/09/30 08:59:41;;;;;;;7.50;2.58;;;12.70;90.00;;;;;;5055314;28;20045;-64
2021/09/30 09:02:14;;;;;;;11.30;2.85;;;12.80;90.40;;;;;;5072362;28;20551;-64
2021/09/30 09:04:52;;;;;;;6.55;2.28;;;12.90;89.30;;;;;;5071650;28;20045;-65
2021/09/30 09:07:23;;;;;;;11.13;3.00;;;13.00;90.30;;;;;;5069507;28;20123;-64
2021/09/30 09:09:53;;;;;;;12.02;2.70;;;13.00;89.70;;;;;;5055124;28;20051;-64
2021/09/30 09:12:20;;;;;;;8.65;2.28;;;13.00;89.60;;;;;;5054301;28;20139;-65
2021/09/30 09:14:47;;;;;;;6.47;2.70;;;13.00;89.70;;;;;;5038136;28;20056;-65
2021/09/30 09:17:16;;;;;;;7.13;2.25;;;13.10;90.10;;;;;;5071869;28;20119;-65
2021/09/30 09:19:43;;;;;;;11.30;3.25;;;13.10;90.10;;;;;;5054357;28;20057;-65
2021/09/30 09:22:15;;;;;;;11.85;3.53;;;13.20;90.60;;;;;;5053946;28;20131;-65
2021/09/30 09:25:03;;;;;;;8.32;1.90;;;13.20;90.70;;;;;;5054252;28;20048;-65
2021/09/30 09:27:49;;;;;;;12.35;3.50;;;13.30;90.70;;;;;;5054235;28;20063;-64
2021/09/30 09:30:32;;;;;;;7.03;1.98;;;13.30;90.90;;;;;;5069102;28;20230;-65
2021/09/30 09:33:34;;;;;;;9.40;2.33;;;13.30;91.20;;;;;;5070927;28;20048;-65
2021/09/30 09:36:09;;;;;;;18.63;3.35;;;13.40;91.10;;;;;;5038434;28;20056;-65
2021/09/30 09:38:45;;;;;;;6.07;2.60;;;13.50;91.60;;;;;;5051765;28;20127;-65
2021/09/30 09:41:14;;;;;;;9.10;2.28;;;13.50;91.70;;;;;;5071315;28;20048;-64
2021/09/30 09:43:42;;;;;;;;;;;13.60;91.30;;;;;;5070459;28;20048;-64
2021/09/30 09:46:12;;;;;;;25.80;17.08;;;13.70;91.30;;;;;;5053994;28;20007;-67
2021/09/30 09:48:39;;;;;;;10.95;3.72;;;13.90;91.10;;;;;;5071387;28;20055;-68
2021/09/30 09:51:10;;;;;;;9.85;3.17;;;14.10;90.70;;;;;;5053489;28;20106;-69
2021/09/30 09:53:38;;;;;;;10.55;2.63;;;14.20;91.00;;;;;;5066976;28;20049;-69
2021/09/30 09:56:16;;;;;;;9.85;2.90;;;14.30;90.20;;;;;;5053892;28;20048;-71
2021/09/30 09:58:45;;;;;;;14.55;3.03;;;14.50;90.20;;;;;;5089547;28;20098;-67
2021/09/30 10:01:12;;;;;;;12.93;3.30;;;14.60;90.70;;;;;;5091546;28;20066;-68
2021/09/30 10:03:48;;;;;;;8.80;3.13;;;14.70;89.40;;;;;;5056831;28;20302;-65
2021/09/30 10:06:15;;;;;;;16.75;4.47;;;14.70;88.60;;;;;;5073234;28;20052;-68
2021/09/30 10:08:42;;;;;;;8.93;2.55;;;14.80;90.20;;;;;;5073734;28;20135;-67
2021/09/30 10:11:09;;;;;;;10.25;3.38;;;15.00;90.00;;;;;;5037233;28;20155;-67
2021/09/30 10:13:37;;;;;;;11.20;3.30;;;15.10;88.80;;;;;;5053501;28;20053;-68
2021/09/30 10:16:07;;;;;;;9.27;3.08;;;15.20;89.00;;;;;;5053855;28;20041;-69
2021/09/30 10:18:33;;;;;;;11.82;3.22;;;15.30;90.00;;;;;;5065227;28;20078;-69
2021/09/30 10:21:01;;;;;;;12.48;3.03;;;15.50;87.80;;;;;;5052557;28;20040;-70
2021/09/30 10:23:29;;;;;;;11.35;2.60;;;15.60;86.50;;;;;;5070750;28;20094;-70
2021/09/30 10:25:58;;;;;;;14.23;3.25;;;15.70;85.90;;;;;;5052990;28;20472;-69
2021/09/30 10:28:25;;;;;;;10.95;4.88;;;15.70;85.70;;;;;;5036919;28;20075;-69
2021/09/30 10:30:53;;;;;;;11.45;3.40;;;15.70;85.90;;;;;;5036507;28;20472;-70
2021/09/30 10:33:40;;;;;;;14.07;3.08;;;15.70;85.20;;;;;;5036418;28;20393;-70
2021/09/30 10:36:33;;;;;;;11.88;3.17;;;15.70;85.90;;;;;;5070126;28;20059;-69
2021/09/30 10:39:26;;;;;;;10.48;2.50;;;15.80;86.00;;;;;;5069293;28;20041;-79
2021/09/30 10:42:04;;;;;;;14.80;8.85;;;15.80;86.60;;;;;;5063073;28;20044;-82
2021/09/30 10:44:35;;;;;;;15.30;4.45;;;15.90;84.80;;;;;;5051397;28;20127;-75
2021/09/30 10:47:04;;;;;;;14.88;3.00;;;16.00;86.30;;;;;;5057715;28;20048;-70
2021/09/30 10:49:42;;;;;;;13.27;3.65;;;16.00;84.60;;;;;;5057296;28;20130;-67
2021/09/30 10:52:16;;;;;;;8.40;3.00;;;16.10;84.50;;;;;;5063085;28;20131;-66
2021/09/30 10:54:50;;;;;;;11.43;3.53;;;16.20;82.60;;;;;;5069121;28;20044;-66
2021/09/30 10:57:36;;;;;;;9.00;2.95;;;16.20;81.70;;;;;;5046313;28;20067;-65
2021/09/30 11:00:07;;;;;;;22.42;10.05;;;16.10;81.60;;;;;;5071749;28;20051;-68
2021/09/30 11:03:02;;;;;;;14.00;3.80;;;16.10;83.00;;;;;;5087307;28;20044;-65
2021/09/30 11:05:42;;;;;;;8.80;2.95;;;15.90;85.00;;;;;;5078675;28;20047;-68
2021/09/30 11:08:23;;;;;;;10.43;4.05;;;15.90;84.50;;;;;;5024712;28;20106;-66
2021/09/30 11:11:02;;;;;;;9.65;2.70;;;15.90;84.20;;;;;;5070522;28;20139;-65
2021/09/30 11:13:30;;;;;;;12.20;3.55;;;16.00;86.10;;;;;;5081523;28;20048;-66
2021/09/30 11:16:12;;;;;;;11.95;3.53;;;16.10;85.40;;;;;;5055988;28;20067;-65
2021/09/30 11:18:55;;;;;;;11.00;3.20;;;16.20;84.20;;;;;;5056366;28;20532;-63
2021/09/30 11:21:31;;;;;;;8.73;2.72;;;16.20;83.20;;;;;;5051464;28;20062;-65
2021/09/30 11:24:06;;;;;;;13.82;4.50;;;16.10;83.30;;;;;;5078913;28;20109;-66
2021/09/30 11:26:49;;;;;;;16.33;4.38;;;16.10;83.80;;;;;;5052827;28;20060;-66
2021/09/30 11:29:22;;;;;;;14.05;4.05;;;16.10;84.60;;;;;;5062905;28;20055;-65
2021/09/30 11:31:58;;;;;;;14.10;4.18;;;16.00;83.40;;;;;;5090451;28;20127;-65
2021/09/30 11:34:29;;;;;;;9.60;3.08;;;16.00;82.80;;;;;;5090058;28;20522;-65
2021/09/30 11:36:58;;;;;;;11.85;3.15;;;16.00;83.40;;;;;;5037208;28;20080;-65
2021/09/30 11:39:34;;;;;;;15.02;3.67;;;16.00;83.90;;;;;;5051765;28;20412;-65
2021/09/30 11:42:02;;;;;;;7.63;2.70;;;16.10;83.10;;;;;;5069846;28;20048;-65
2021/09/30 11:44:29;;;;;;;10.80;2.90;;;16.10;83.20;;;;;;5054931;28;20044;-65
2021/09/30 11:46:57;;;;;;;11.82;3.38;;;16.20;82.50;;;;;;5071993;28;20040;-66
2021/09/30 11:49:24;;;;;;;12.75;3.28;;;16.30;82.20;;;;;;5072326;28;20077;-64
2021/09/30 11:51:56;;;;;;;11.75;3.10;;;16.30;81.80;;;;;;5035096;28;20788;-64
2021/09/30 11:54:35;;;;;;;13.10;3.45;;;16.30;81.80;;;;;;5057040;28;20074;-62
2021/09/30 11:57:03;;;;;;;159.13;140.05;;;16.20;81.80;;;;;;5087184;28;20098;-63
2021/09/30 11:59:30;;;;;;;16.77;5.10;;;16.20;82.20;;;;;;5064495;28;20040;-64
2021/09/30 12:01:58;;;;;;;10.15;3.28;;;16.20;82.10;;;;;;5038012;28;20041;-63
2021/09/30 12:04:30;;;;;;;8.32;3.58;;;16.30;83.20;;;;;;5055601;28;20047;-64
2021/09/30 12:06:57;;;;;;;12.88;2.63;;;16.30;83.30;;;;;;5087905;28;20135;-65
2021/09/30 12:09:24;;;;;;;13.68;3.05;;;16.40;82.20;;;;;;5061763;28;20518;-65
2021/09/30 12:11:53;;;;;;;12.50;3.60;;;16.40;81.20;;;;;;5088263;28;20115;-65
2021/09/30 12:14:21;;;;;;;10.70;3.75;;;16.50;82.40;;;;;;5050741;28;20087;-65
2021/09/30 12:16:54;;;;;;;9.32;2.75;;;16.70;81.70;;;;;;5037474;28;20048;-65
2021/09/30 12:19:39;;;;;;;8.82;2.38;;;16.70;79.90;;;;;;5057409;28;20484;-65
2021/09/30 12:22:08;;;;;;;9.00;2.95;;;16.80;80.00;;;;;;5038504;28;20049;-62
2021/09/30 12:24:35;;;;;;;;;;;16.80;79.00;;;;;;5055262;28;20059;-65
2021/09/30 12:27:05;;;;;;;12.52;3.65;;;16.70;79.50;;;;;;5072227;28;19928;-66
2021/09/30 12:29:38;;;;;;;11.82;3.58;;;16.60;80.00;;;;;;5072850;28;20083;-65
2021/09/30 12:32:07;;;;;;;12.43;4.25;;;16.70;80.40;;;;;;5073222;28;20052;-62
2021/09/30 12:34:34;;;;;;;10.02;3.65;;;16.70;80.10;;;;;;5055169;28;20139;-63
2021/09/30 12:37:01;;;;;;;9.38;3.00;;;16.70;79.40;;;;;;5054505;28;20084;-62
2021/09/30 12:39:30;;;;;;;14.07;2.97;;;16.90;79.10;;;;;;5073170;28;20472;-65
2021/09/30 12:42:14;;;;;;;15.50;3.47;;;17.00;78.00;;;;;;5071951;28;20048;-62
2021/09/30 12:44:44;;;;;;;14.20;3.90;;;17.10;78.20;;;;;;5054885;28;20075;-64
2021/09/30 12:47:30;;;;;;;10.20;3.70;;;17.20;79.00;;;;;;5055370;28;20148;-67
2021/09/30 12:50:03;;;;;;;10.10;3.60;;;17.20;76.10;;;;;;5037501;28;20567;-65
2021/09/30 12:52:30;;;;;;;9.00;2.88;;;17.20;77.20;;;;;;5072134;28;20147;-64
2021/09/30 12:54:57;;;;;;;9.07;2.97;;;17.10;76.60;;;;;;5054734;28;20127;-65
2021/09/30 12:57:31;;;;;;;10.77;2.83;;;17.00;78.00;;;;;;5054314;28;20068;-65
2021/09/30 13:00:12;;;;;;;11.13;3.65;;;17.00;77.50;;;;;;5053688;28;20051;-66
2021/09/30 13:02:40;;;;;;;9.63;3.72;;;16.90;78.10;;;;;;5038477;28;20055;-65
2021/09/30 13:05:07;;;;;;;8.88;3.08;;;16.80;77.90;;;;;;5054182;28;20049;-65
2021/09/30 13:07:58;;;;;;;12.63;2.85;;;16.70;78.90;;;;;;5055405;28;20561;-65
2021/09/30 13:10:30;;;;;;;8.90;2.72;;;16.60;79.30;;;;;;5070771;28;20091;-65
2021/09/30 13:13:04;;;;;;;9.68;2.53;;;16.70;79.90;;;;;;5039238;28;20154;-63
2021/09/30 13:15:42;;;;;;;13.52;4.38;;;16.70;80.60;;;;;;5054465;28;20083;-64
2021/09/30 13:18:11;;;;;;;12.63;3.33;;;16.80;79.80;;;;;;5041486;28;20531;-64
2021/09/30 13:20:40;;;;;;;11.07;3.15;;;16.70;79.70;;;;;;5073082;28;20056;-64
2021/09/30 13:23:07;;;;;;;9.80;2.67;;;16.60;80.20;;;;;;5077171;28;20147;-64
2021/09/30 13:25:34;;;;;;;11.73;2.90;;;16.70;81.30;;;;;;5072002;28;20087;-63
2021/09/30 13:28:02;;;;;;;10.77;3.35;;;16.80;81.20;;;;;;5071716;28;20051;-64
2021/09/30 13:30:30;;;;;;;12.43;3.60;;;17.00;82.30;;;;;;5071320;28;20164;-64
2021/09/30 13:32:59;;;;;;;8.88;3.00;;;17.10;82.40;;;;;;5054273;28;20113;-65
2021/09/30 13:35:27;;;;;;;10.82;3.83;;;17.20;81.90;;;;;;5037505;28;20066;-65
2021/09/30 13:37:54;;;;;;;12.35;3.33;;;17.30;80.20;;;;;;5070184;28;20827;-63
2021/09/30 13:40:22;;;;;;;11.65;3.17;;;17.30;81.40;;;;;;5053657;28;20036;-65
2021/09/30 13:42:50;;;;;;;11.55;3.20;;;17.20;81.00;;;;;;5071481;28;20036;-66
2021/09/30 13:45:18;;;;;;;12.98;4.38;;;17.30;81.20;;;;;;5052634;28;20049;-65
2021/09/30 13:47:45;;;;;;;11.15;3.17;;;17.40;81.60;;;;;;5052867;28;20052;-65
2021/09/30 13:50:14;;;;;;;9.63;3.00;;;17.30;80.20;;;;;;5053409;28;20175;-65
2021/09/30 13:52:41;;;;;;;9.55;3.05;;;17.30;80.80;;;;;;5053359;28;20122;-65
2021/09/30 13:55:09;;;;;;;13.27;3.35;;;17.20;80.00;;;;;;5036950;28;20555;-65
2021/09/30 13:57:36;;;;;;;10.65;2.88;;;17.20;81.80;;;;;;5069338;28;20476;-65
2021/09/30 14:00:05;;;;;;;18.30;3.95;;;17.00;82.10;;;;;;5071128;28;20067;-65
2021/09/30 14:02:40;;;;;;;13.35;3.33;;;16.90;81.90;;;;;;5070872;28;20047;-65
2021/09/30 14:05:09;;;;;;;11.75;2.92;;;16.90;82.80;;;;;;5070692;28;20456;-66
2021/09/30 14:07:36;;;;;;;13.07;3.77;;;17.00;82.70;;;;;;5052715;28;20042;-65
2021/09/30 14:10:07;;;;;;;11.18;3.22;;;17.10;81.50;;;;;;5055547;28;20094;-65
2021/09/30 14:12:34;;;;;;;11.32;3.03;;;17.10;82.50;;;;;;5056095;28;20479;-65
2021/09/30 14:15:01;;;;;;;14.57;3.72;;;17.20;82.20;;;;;;5081096;28;20117;-65
2021/09/30 14:17:28;;;;;;;13.32;3.17;;;17.30;81.90;;;;;;5089948;28;20075;-66
2021/09/30 14:19:55;;;;;;;49.83;36.00;;;17.30;82.30;;;;;;5074273;28;20064;-66
2021/09/30 14:22:22;;;;;;;13.02;5.45;;;17.40;81.40;;;;;;5052626;28;20044;-65
2021/09/30 14:24:49;;;;;;;18.20;4.68;;;17.50;81.00;;;;;;5052733;28;20059;-65
2021/09/30 14:27:16;;;;;;;9.68;3.40;;;17.60;81.40;;;;;;5070672;28;20139;-66
2021/09/30 14:29:43;;;;;;;11.77;2.83;;;17.60;81.20;;;;;;5033886;28;20127;-64
2021/09/30 14:32:11;;;;;;;13.95;3.65;;;17.50;81.30;;;;;;5049139;28;20044;-66
2021/09/30 14:34:39;;;;;;;12.95;3.63;;;17.50;80.00;;;;;;5035638;28;20044;-65
2021/09/30 14:37:06;;;;;;;14.90;4.18;;;17.40;81.10;;;;;;5052313;28;20495;-64
2021/09/30 14:39:33;;;;;;;19.63;3.78;;;17.30;81.20;;;;;;5051625;28;20044;-67
2021/09/30 14:42:00;;;;;;;12.63;3.15;;;17.30;82.20;;;;;;5067101;28;20054;-65
2021/09/30 14:44:27;;;;;;;15.82;3.80;;;17.20;81.10;;;;;;5068022;28;20475;-65
2021/09/30 14:46:54;;;;;;;11.70;3.50;;;17.20;81.60;;;;;;5055177;28;20048;-65
2021/09/30 14:49:22;;;;;;;12.65;3.25;;;17.10;82.60;;;;;;5069020;28;20102;-66
2021/09/30 14:51:51;;;;;;;13.38;2.90;;;17.00;81.80;;;;;;5073829;28;20125;-68
2021/09/30 14:54:20;;;;;;;15.57;3.70;;;17.00;82.90;;;;;;5057528;28;20039;-69
2021/09/30 14:56:47;;;;;;;13.77;3.80;;;17.00;82.40;;;;;;5080662;28;20060;-69
2021/09/30 14:59:16;;;;;;;11.60;3.30;;;17.00;82.40;;;;;;5083031;28;20052;-70
2021/09/30 15:01:43;;;;;;;12.65;3.47;;;16.90;81.80;;;;;;5057506;28;20091;-68
2021/09/30 15:04:10;;;;;;;21.20;3.97;;;16.90;83.30;;;;;;5085279;28;20076;-68
2021/09/30 15:06:40;;;;;;;14.07;4.05;;;16.80;83.10;;;;;;5040284;28;20548;-69
2021/09/30 15:09:08;;;;;;;10.88;4.05;;;16.80;83.50;;;;;;5082251;28;20048;-67
2021/09/30 15:11:39;;;;;;;11.23;3.70;;;16.70;84.00;;;;;;5054876;28;20094;-68
2021/09/30 15:14:06;;;;;;;12.10;3.80;;;16.60;83.90;;;;;;5084623;28;20058;-64
2021/09/30 15:16:38;;;;;;;11.05;3.60;;;16.60;84.40;;;;;;5060234;28;20056;-67
2021/09/30 15:19:08;;;;;;;12.55;3.60;;;16.60;85.30;;;;;;5088286;28;20098;-64
2021/09/30 15:21:35;;;;;;;11.98;3.80;;;16.50;85.90;;;;;;5050544;28;20396;-65
2021/09/30 15:24:04;;;;;;;9.95;2.92;;;16.60;85.10;;;;;;5057819;28;20114;-64
2021/09/30 15:26:32;;;;;;;;;;;16.60;85.60;;;;;;5036904;28;20052;-64
2021/09/30 15:29:03;;;;;;;10.80;3.53;;;16.60;85.80;;;;;;5036334;28;20292;-65
2021/09/30 15:31:32;;;;;;;15.10;3.53;;;16.50;86.80;;;;;;5056503;28;20079;-66
2021/09/30 15:33:59;;;;;;;10.60;3.10;;;16.50;86.80;;;;;;5047387;28;20356;-64
2021/09/30 15:36:28;;;;;;;10.50;3.10;;;16.40;87.20;;;;;;5075005;28;20052;-63
2021/09/30 15:38:58;;;;;;;11.82;3.15;;;16.40;87.50;;;;;;5058506;28;20036;-65
2021/09/30 15:41:25;;;;;;;13.35;8.63;;;16.40;88.20;;;;;;5054019;28;20048;-67
2021/09/30 15:43:53;;;;;;;9.93;3.42;;;16.40;88.90;;;;;;5073036;28;20116;-71